createdAt,value
2017-08-30T00:00:13.536Z,13.40
2017-08-30T00:02:41.091Z,13.10
2017-08-30T00:05:08.812Z,13.97
2017-08-30T00:07:36.375Z,13.43
2017-08-30T00:10:03.934Z,13.70
2017-08-30T00:12:32.189Z,12.90
2017-08-30T00:14:59.762Z,13.47
2017-08-30T00:17:27.333Z,14.00
2017-08-30T00:19:55.907Z,12.70
2017-08-30T00:22:23.886Z,13.20
2017-08-30T00:25:03.287Z,13.80
2017-08-30T00:27:30.945Z,14.47
2017-08-30T00:29:58.550Z,13.60
2017-08-30T00:32:26.180Z,13.55
2017-08-30T00:34:53.747Z,14.00
2017-08-30T00:37:21.714Z,13.70
2017-08-30T00:39:49.275Z,14.17
2017-08-30T00:42:17.332Z,13.77
2017-08-30T00:44:46.472Z,14.20
2017-08-30T00:47:14.095Z,13.65
2017-08-30T00:49:41.669Z,13.07
2017-08-30T00:52:09.378Z,13.60
2017-08-30T00:54:36.953Z,13.80
2017-08-30T00:57:04.540Z,13.98
2017-08-30T00:59:32.141Z,14.00
2017-08-30T01:02:00.116Z,13.70
2017-08-30T01:04:27.686Z,13.90
2017-08-30T01:06:55.289Z,14.43
2017-08-30T01:09:22.886Z,14.03
2017-08-30T01:11:50.453Z,15.07
2017-08-30T01:14:18.046Z,14.50
2017-08-30T01:16:45.687Z,14.30
2017-08-30T01:19:13.252Z,14.50
2017-08-30T01:21:41.189Z,14.03
2017-08-30T01:24:08.762Z,14.80
2017-08-30T01:26:36.361Z,14.90
2017-08-30T01:29:04.074Z,13.60
2017-08-30T01:31:31.802Z,15.10
2017-08-30T01:33:59.370Z,14.70
2017-08-30T01:36:26.963Z,15.43
2017-08-30T01:38:54.517Z,13.80
2017-08-30T01:41:22.122Z,14.07
2017-08-30T01:43:49.678Z,14.63
2017-08-30T01:46:17.271Z,14.47
2017-08-30T01:48:44.851Z,14.97
2017-08-30T01:51:12.609Z,14.18
2017-08-30T01:53:40.205Z,13.93
2017-08-30T01:56:07.746Z,14.57
2017-08-30T01:58:36.272Z,13.60
2017-08-30T02:01:03.814Z,14.60
2017-08-30T02:03:31.683Z,14.20
2017-08-30T02:05:59.244Z,13.50
2017-08-30T02:08:26.793Z,13.62
2017-08-30T02:10:54.505Z,13.77
2017-08-30T02:13:22.062Z,13.98
2017-08-30T02:15:49.813Z,13.70
2017-08-30T02:18:17.458Z,15.35
2017-08-30T02:20:45.011Z,15.13
2017-08-30T02:23:12.763Z,14.30
2017-08-30T02:25:40.314Z,14.53
2017-08-30T02:28:08.338Z,14.13
2017-08-30T02:30:36.607Z,14.60
2017-08-30T02:33:04.926Z,15.10
2017-08-30T02:35:32.522Z,14.70
2017-08-30T02:38:01.234Z,15.32
2017-08-30T02:40:28.793Z,15.77
2017-08-30T02:42:56.350Z,15.57
2017-08-30T02:45:24.069Z,14.95
2017-08-30T02:47:51.621Z,14.90
2017-08-30T02:50:19.254Z,16.15
2017-08-30T02:52:46.809Z,15.20
2017-08-30T02:55:14.361Z,14.57
2017-08-30T02:57:41.975Z,14.20
2017-08-30T03:00:09.574Z,15.23
2017-08-30T03:02:37.122Z,15.63
2017-08-30T03:05:04.953Z,14.95
2017-08-30T03:07:32.516Z,14.87
2017-08-30T03:10:00.210Z,16.08
2017-08-30T03:12:27.766Z,15.15
2017-08-30T03:14:55.317Z,15.05
2017-08-30T03:17:23.276Z,15.18
2017-08-30T03:19:51.241Z,15.50
2017-08-30T03:22:18.803Z,15.63
2017-08-30T03:24:46.367Z,15.63
2017-08-30T03:27:13.962Z,15.40
2017-08-30T03:29:41.546Z,16.40
2017-08-30T03:32:09.374Z,15.00
2017-08-30T03:34:36.921Z,15.50
2017-08-30T03:37:08.343Z,15.60
2017-08-30T03:39:35.921Z,14.98
2017-08-30T03:42:03.522Z,15.40
2017-08-30T03:44:31.185Z,16.00
2017-08-30T03:46:58.796Z,15.38
2017-08-30T03:49:26.342Z,16.90
2017-08-30T03:51:54.136Z,15.90
2017-08-30T03:54:21.677Z,15.87
2017-08-30T03:56:49.558Z,15.70
2017-08-30T03:59:17.126Z,16.23
2017-08-30T04:01:44.685Z,15.70
2017-08-30T04:04:12.282Z,15.32
2017-08-30T04:06:40.261Z,16.20
2017-08-30T04:09:07.813Z,15.63
2017-08-30T04:11:35.408Z,16.48
2017-08-30T04:14:02.998Z,15.20
2017-08-30T04:16:30.550Z,16.33
2017-08-30T04:18:58.134Z,16.10
2017-08-30T04:21:25.693Z,15.65
2017-08-30T04:23:53.399Z,15.43
2017-08-30T04:26:20.959Z,15.90
2017-08-30T04:28:48.746Z,15.27
2017-08-30T04:31:16.303Z,14.77
2017-08-30T04:33:43.905Z,15.10
2017-08-30T04:36:11.461Z,15.82
2017-08-30T04:38:39.099Z,16.00
2017-08-30T04:41:07.057Z,16.33
2017-08-30T04:43:34.616Z,14.90
2017-08-30T04:46:04.764Z,15.82
2017-08-30T04:48:33.599Z,15.70
2017-08-30T04:51:01.149Z,15.02
2017-08-30T04:53:28.714Z,15.93
2017-08-30T04:55:56.310Z,15.45
2017-08-30T04:58:24.296Z,15.02
2017-08-30T05:00:51.859Z,15.60
2017-08-30T05:03:19.419Z,15.27
2017-08-30T05:05:47.591Z,15.73
2017-08-30T05:08:15.230Z,15.57
2017-08-30T05:10:42.784Z,14.80
2017-08-30T05:13:10.439Z,15.30
2017-08-30T05:15:38.003Z,15.10
2017-08-30T05:18:06.802Z,15.63
2017-08-30T05:20:34.390Z,15.70
2017-08-30T05:23:02.154Z,15.53
2017-08-30T05:25:29.711Z,14.70
2017-08-30T05:27:57.262Z,15.20
2017-08-30T05:30:29.346Z,15.50
2017-08-30T05:32:56.902Z,15.27
2017-08-30T05:35:24.460Z,14.32
2017-08-30T05:37:52.063Z,15.20
2017-08-30T05:40:19.614Z,14.47
2017-08-30T05:42:48.673Z,13.77
2017-08-30T05:45:16.230Z,14.13
2017-08-30T05:47:43.791Z,14.50
2017-08-30T05:50:11.382Z,14.30
2017-08-30T05:52:39.749Z,13.80
2017-08-30T05:55:07.530Z,13.55
2017-08-30T05:57:35.119Z,14.80
2017-08-30T06:00:02.672Z,14.30
2017-08-30T06:02:31.669Z,13.30
2017-08-30T06:04:59.222Z,14.40
2017-08-30T06:07:26.844Z,14.15
2017-08-30T06:09:54.399Z,13.90
2017-08-30T06:12:21.955Z,13.93
2017-08-30T06:14:49.721Z,14.25
2017-08-30T06:17:17.314Z,13.57
2017-08-30T06:19:44.868Z,14.50
2017-08-30T06:22:14.448Z,13.60
2017-08-30T06:24:41.997Z,13.50
2017-08-30T06:27:09.547Z,14.23
2017-08-30T06:29:37.148Z,14.30
2017-08-30T06:32:04.809Z,13.10
2017-08-30T06:34:32.354Z,13.03
2017-08-30T06:37:00.147Z,13.67
2017-08-30T06:39:27.767Z,13.47
2017-08-30T06:41:55.313Z,13.00
2017-08-30T06:44:22.914Z,13.43
2017-08-30T06:46:50.542Z,13.97
2017-08-30T06:49:18.140Z,12.73
2017-08-30T06:51:45.690Z,12.50
2017-08-30T06:54:17.349Z,13.53
2017-08-30T06:56:44.897Z,12.73
2017-08-30T06:59:12.442Z,13.97
2017-08-30T07:01:40.037Z,13.10
2017-08-30T07:04:07.629Z,13.37
2017-08-30T07:06:35.178Z,12.90
2017-08-30T07:09:06.373Z,13.17
2017-08-30T07:11:33.930Z,12.30
2017-08-30T07:14:01.661Z,13.03
2017-08-30T07:16:29.260Z,13.10
2017-08-30T07:18:56.809Z,12.80
2017-08-30T07:21:24.456Z,12.77
2017-08-30T07:23:52.017Z,13.60
2017-08-30T07:26:19.614Z,13.03
2017-08-30T07:28:47.162Z,13.30
2017-08-30T07:31:15.351Z,12.70
2017-08-30T07:33:42.923Z,13.00
2017-08-30T07:36:10.538Z,13.10
2017-08-30T07:38:38.166Z,13.10
2017-08-30T07:41:05.790Z,13.47
2017-08-30T07:43:33.381Z,13.70
2017-08-30T07:46:00.942Z,12.40
2017-08-30T07:48:28.624Z,13.27
2017-08-30T07:50:56.184Z,13.30
2017-08-30T07:53:24.157Z,13.77
2017-08-30T07:55:51.714Z,14.03
2017-08-30T07:58:19.276Z,13.47
2017-08-30T08:00:46.872Z,13.60
2017-08-30T08:03:14.461Z,13.33
2017-08-30T08:05:42.004Z,13.83
2017-08-30T08:08:09.650Z,13.80
2017-08-30T08:10:37.205Z,13.47
2017-08-30T08:13:06.284Z,14.10
2017-08-30T08:15:33.842Z,13.70
2017-08-30T08:18:01.390Z,14.00
2017-08-30T08:20:31.796Z,14.17
2017-08-30T08:22:59.364Z,13.87
2017-08-30T08:25:26.914Z,14.03
2017-08-30T08:27:54.568Z,13.63
2017-08-30T08:30:22.535Z,14.93
2017-08-30T08:32:50.093Z,14.57
2017-08-30T08:35:17.669Z,14.93
2017-08-30T08:37:45.414Z,13.40
2017-08-30T08:40:13.633Z,14.30
2017-08-30T08:42:41.185Z,14.67
2017-08-30T08:45:08.751Z,14.10
2017-08-30T08:47:36.361Z,14.30
2017-08-30T08:50:03.921Z,13.53
2017-08-30T08:52:31.464Z,14.50
2017-08-30T08:54:59.462Z,14.13
2017-08-30T08:57:27.023Z,15.77
2017-08-30T08:59:54.574Z,14.70
2017-08-30T09:02:22.554Z,13.80
2017-08-30T09:04:50.112Z,14.33
2017-08-30T09:07:17.692Z,13.47
2017-08-30T09:09:45.345Z,13.53
2017-08-30T09:12:12.901Z,15.17
2017-08-30T09:14:40.543Z,14.60
2017-08-30T09:17:08.146Z,14.43
2017-08-30T09:19:36.645Z,16.00
2017-08-30T09:22:04.199Z,13.30
2017-08-30T09:24:31.784Z,14.87
2017-08-30T09:26:59.329Z,14.20
2017-08-30T09:29:27.246Z,14.27
2017-08-30T09:31:54.820Z,13.57
2017-08-30T09:34:22.381Z,13.77
2017-08-30T09:36:50.132Z,13.90
2017-08-30T09:39:17.686Z,14.33
2017-08-30T09:41:45.547Z,13.83
2017-08-30T09:44:13.090Z,13.67
2017-08-30T09:46:40.823Z,14.43
2017-08-30T09:49:08.393Z,14.43
2017-08-30T09:51:35.936Z,13.80
2017-08-30T09:54:03.576Z,14.23
2017-08-30T09:56:31.537Z,14.57
2017-08-30T09:58:59.086Z,14.80
2017-08-30T10:01:26.632Z,13.80
2017-08-30T10:03:54.224Z,13.80
2017-08-30T10:06:21.781Z,13.50
2017-08-30T10:08:49.749Z,13.00
2017-08-30T10:11:17.434Z,14.80
2017-08-30T10:13:44.998Z,14.20
2017-08-30T10:16:12.597Z,13.50
2017-08-30T10:18:40.153Z,14.50
2017-08-30T10:21:07.803Z,13.13
2017-08-30T10:23:35.353Z,14.50
2017-08-30T10:26:03.114Z,14.53
2017-08-30T10:28:30.726Z,14.43
2017-08-30T10:30:58.468Z,14.10
2017-08-30T10:33:26.018Z,14.50
2017-08-30T10:35:53.626Z,13.90
2017-08-30T10:38:21.894Z,14.10
2017-08-30T10:40:49.635Z,14.37
2017-08-30T10:43:17.186Z,14.30
2017-08-30T10:45:44.780Z,13.90
2017-08-30T10:48:12.361Z,14.57
2017-08-30T10:50:39.955Z,14.30
2017-08-30T10:53:07.506Z,14.73
2017-08-30T10:55:35.354Z,14.63
2017-08-30T10:58:02.897Z,14.00
2017-08-30T11:00:30.462Z,14.93
2017-08-30T11:02:58.058Z,14.60
2017-08-30T11:05:25.607Z,14.87
2017-08-30T11:07:53.217Z,14.60
2017-08-30T11:10:20.771Z,15.53
2017-08-30T11:12:48.321Z,15.40
2017-08-30T11:15:17.860Z,15.00
2017-08-30T11:17:45.418Z,14.50
2017-08-30T11:20:12.981Z,15.43
2017-08-30T11:22:40.648Z,14.93
2017-08-30T11:25:08.205Z,15.10
2017-08-30T11:27:35.807Z,13.97
2017-08-30T11:30:03.358Z,15.17
2017-08-30T11:32:35.103Z,14.53
2017-08-30T11:35:02.649Z,15.20
2017-08-30T11:37:30.234Z,15.00
2017-08-30T11:39:57.828Z,14.83
2017-08-30T11:42:25.426Z,14.00
2017-08-30T11:44:53.017Z,13.97
2017-08-30T11:47:20.613Z,14.80
2017-08-30T11:49:48.273Z,14.90
2017-08-30T11:52:15.846Z,15.13
2017-08-30T11:54:43.447Z,15.47
2017-08-30T11:57:11.002Z,15.23
2017-08-30T11:59:38.598Z,15.30
2017-08-30T12:02:06.275Z,15.40
2017-08-30T12:04:33.908Z,14.60
2017-08-30T12:07:01.466Z,14.30
2017-08-30T12:09:29.139Z,14.27
2017-08-30T12:11:56.695Z,15.40
2017-08-30T12:14:24.359Z,14.60
2017-08-30T12:16:51.921Z,13.90
2017-08-30T12:19:19.645Z,14.07
2017-08-30T12:21:47.203Z,13.83
2017-08-30T12:24:14.754Z,14.30
2017-08-30T12:26:42.405Z,14.43
2017-08-30T12:29:09.949Z,13.27
2017-08-30T12:31:37.905Z,14.70
2017-08-30T12:34:05.458Z,15.00
2017-08-30T12:36:38.653Z,14.87
2017-08-30T12:39:11.879Z,14.03
2017-08-30T12:41:39.850Z,15.00
2017-08-30T12:44:07.411Z,15.20
2017-08-30T12:46:34.971Z,14.90
2017-08-30T12:49:02.715Z,15.03
2017-08-30T12:51:30.304Z,14.00
2017-08-30T12:53:57.845Z,14.97
2017-08-30T12:56:25.449Z,15.30
2017-08-30T12:58:53.007Z,15.30
2017-08-30T13:01:20.617Z,14.83
2017-08-30T13:03:48.162Z,15.67
2017-08-30T13:06:15.910Z,14.60
2017-08-30T13:08:43.498Z,15.20
2017-08-30T13:11:11.044Z,14.70
2017-08-30T13:13:38.642Z,15.03
2017-08-30T13:16:06.235Z,14.40
2017-08-30T13:18:37.481Z,14.80
2017-08-30T13:21:05.029Z,14.30
2017-08-30T13:23:32.911Z,15.67
2017-08-30T13:26:00.487Z,15.00
2017-08-30T13:28:28.033Z,15.07
2017-08-30T13:30:55.794Z,15.60
2017-08-30T13:33:23.349Z,15.00
2017-08-30T13:35:51.313Z,14.90
2017-08-30T13:38:18.862Z,16.70
2017-08-30T13:40:46.439Z,15.43
2017-08-30T13:43:16.553Z,15.67
2017-08-30T13:45:44.154Z,16.47
2017-08-30T13:48:11.707Z,15.60
2017-08-30T13:50:39.322Z,15.53
2017-08-30T13:53:07.181Z,15.60
2017-08-30T13:55:34.730Z,15.43
2017-08-30T13:58:02.285Z,16.27
2017-08-30T14:00:30.008Z,15.43
2017-08-30T14:02:57.594Z,16.80
2017-08-30T14:05:25.149Z,15.70
2017-08-30T14:07:52.899Z,16.40
2017-08-30T14:10:20.490Z,15.70
2017-08-30T14:12:48.037Z,16.17
2017-08-30T14:15:15.628Z,15.50
2017-08-30T14:17:43.178Z,16.00
2017-08-30T14:20:14.466Z,15.97
2017-08-30T14:22:42.017Z,16.23
2017-08-30T14:25:09.677Z,16.03
2017-08-30T14:27:37.217Z,16.20
2017-08-30T14:30:04.806Z,16.20
2017-08-30T14:32:32.835Z,16.80
2017-08-30T14:35:00.954Z,15.83
2017-08-30T14:37:28.509Z,16.47
2017-08-30T14:39:56.066Z,16.00
2017-08-30T14:42:23.656Z,16.20
2017-08-30T14:44:51.214Z,17.80
2017-08-30T14:47:18.801Z,16.50
2017-08-30T14:49:46.349Z,16.23
2017-08-30T14:52:14.946Z,16.37
2017-08-30T14:54:42.493Z,17.60
2017-08-30T14:57:10.133Z,16.57
2017-08-30T14:59:37.677Z,16.77
2017-08-30T15:02:05.657Z,16.97
2017-08-30T15:04:33.210Z,19.80
2017-08-30T15:07:02.448Z,17.20
2017-08-30T15:09:30.157Z,19.40
2017-08-30T15:11:57.885Z,19.10
2017-08-30T15:14:25.921Z,19.30
2017-08-30T15:16:53.478Z,18.93
2017-08-30T15:19:21.030Z,19.10
2017-08-30T15:21:48.622Z,18.87
2017-08-30T15:24:16.183Z,19.10
2017-08-30T15:26:44.428Z,19.70
2017-08-30T15:29:11.984Z,19.27
2017-08-30T15:31:39.634Z,18.60
2017-08-30T15:34:07.866Z,18.40
2017-08-30T15:36:35.442Z,19.23
2017-08-30T15:39:03.082Z,22.90
2017-08-30T15:41:30.694Z,18.87
2017-08-30T15:43:58.242Z,21.00
2017-08-30T15:46:25.946Z,22.03
2017-08-30T15:48:53.510Z,21.60
2017-08-30T15:51:21.078Z,21.17
2017-08-30T15:53:49.126Z,21.07
2017-08-30T15:56:16.691Z,20.70
2017-08-30T15:58:44.250Z,21.70
2017-08-30T16:01:11.846Z,21.70
2017-08-30T16:03:39.625Z,20.57
2017-08-30T16:06:07.682Z,21.03
2017-08-30T16:08:35.229Z,20.57
2017-08-30T16:11:02.781Z,21.93
2017-08-30T16:13:30.369Z,22.27
2017-08-30T16:15:57.910Z,23.57
2017-08-30T16:18:25.498Z,25.17
2017-08-30T16:20:53.121Z,24.60
2017-08-30T16:23:20.678Z,23.80
2017-08-30T16:25:49.064Z,23.73
2017-08-30T16:28:16.618Z,22.80
2017-08-30T16:30:44.158Z,22.90
2017-08-30T16:33:12.539Z,21.13
2017-08-30T16:35:40.086Z,22.07
2017-08-30T16:38:07.632Z,23.10
2017-08-30T16:40:35.223Z,23.10
2017-08-30T16:43:02.786Z,23.00
2017-08-30T16:45:33.102Z,21.70
2017-08-30T16:48:00.654Z,23.13
2017-08-30T16:50:28.198Z,21.63
2017-08-30T16:52:56.193Z,23.43
2017-08-30T16:55:23.741Z,22.30
2017-08-30T16:57:51.309Z,23.83
2017-08-30T17:00:19.382Z,22.97
2017-08-30T17:02:46.925Z,23.37
2017-08-30T17:05:14.493Z,21.37
2017-08-30T17:07:42.077Z,21.07
2017-08-30T17:10:09.626Z,21.80
2017-08-30T17:12:37.210Z,21.63
2017-08-30T17:15:04.755Z,22.27
2017-08-30T17:17:32.306Z,24.13
2017-08-30T17:20:00.479Z,26.30
2017-08-30T17:22:28.026Z,27.97
2017-08-30T17:24:55.703Z,28.17
2017-08-30T17:27:23.307Z,29.90
2017-08-30T17:29:50.868Z,30.63
2017-08-30T17:32:23.819Z,32.20
2017-08-30T17:34:51.513Z,29.17
2017-08-30T17:37:19.057Z,31.43
2017-08-30T17:39:47.282Z,31.43
2017-08-30T17:42:14.838Z,32.10
2017-08-30T17:44:42.382Z,31.70
2017-08-30T17:47:09.970Z,32.07
2017-08-30T17:49:37.523Z,32.60
2017-08-30T17:52:05.108Z,35.00
2017-08-30T17:54:32.653Z,33.03
2017-08-30T17:57:00.638Z,31.17
2017-08-30T17:59:28.238Z,32.33
2017-08-30T18:01:55.898Z,30.70
2017-08-30T18:04:23.848Z,32.67
2017-08-30T18:06:51.441Z,32.10
2017-08-30T18:09:18.990Z,32.03
2017-08-30T18:11:47.322Z,31.33
2017-08-30T18:14:15.087Z,32.97
2017-08-30T18:16:42.777Z,32.23
2017-08-30T18:19:10.330Z,31.63
2017-08-30T18:21:37.946Z,32.03
2017-08-30T18:24:05.514Z,31.43
2017-08-30T18:26:33.070Z,33.47
2017-08-30T18:29:00.746Z,32.23
2017-08-30T18:31:28.451Z,33.27
2017-08-30T18:33:56.064Z,32.10
2017-08-30T18:36:23.663Z,33.43
2017-08-30T18:38:51.269Z,29.17
2017-08-30T18:41:18.822Z,32.80
2017-08-30T18:43:46.433Z,34.17
2017-08-30T18:46:13.993Z,32.37
2017-08-30T18:48:41.560Z,32.90
2017-08-30T18:51:09.334Z,33.57
2017-08-30T18:53:36.932Z,33.90
2017-08-30T18:56:04.494Z,32.83
2017-08-30T18:58:32.092Z,34.70
2017-08-30T19:00:59.650Z,33.97
2017-08-30T19:03:27.279Z,31.33
2017-08-30T19:05:54.841Z,35.07
2017-08-30T19:08:22.408Z,31.10
2017-08-30T19:10:50.174Z,33.60
2017-08-30T19:13:17.732Z,31.50
2017-08-30T19:15:45.321Z,34.80
2017-08-30T19:18:12.861Z,33.80
2017-08-30T19:20:40.509Z,34.00
2017-08-30T19:23:08.057Z,34.83
2017-08-30T19:25:35.914Z,34.37
2017-08-30T19:28:03.461Z,35.10
2017-08-30T19:30:31.017Z,35.10
2017-08-30T19:32:58.641Z,34.00
2017-08-30T19:35:26.189Z,33.70
2017-08-30T19:37:53.786Z,35.50
2017-08-30T19:40:21.337Z,37.13
2017-08-30T19:42:49.029Z,34.97
2017-08-30T19:45:16.578Z,35.17
2017-08-30T19:47:44.249Z,35.07
2017-08-30T19:50:11.840Z,36.17
2017-08-30T19:52:39.430Z,35.90
2017-08-30T19:55:07.022Z,36.53
2017-08-30T19:57:34.609Z,34.83
2017-08-30T20:00:02.170Z,36.30
2017-08-30T20:02:31.240Z,34.43
2017-08-30T20:04:59.060Z,33.90
2017-08-30T20:07:26.618Z,34.27
2017-08-30T20:09:54.555Z,34.23
2017-08-30T20:12:22.104Z,31.80
2017-08-30T20:14:49.706Z,30.63
2017-08-30T20:17:17.261Z,25.10
2017-08-30T20:19:45.178Z,23.67
2017-08-30T20:22:12.729Z,22.60
2017-08-30T20:24:40.277Z,17.80
2017-08-30T20:27:08.031Z,19.03
2017-08-30T20:29:38.278Z,19.67
2017-08-30T20:32:05.997Z,17.83
2017-08-30T20:34:33.546Z,14.53
2017-08-30T20:37:01.138Z,11.50
2017-08-30T20:39:28.695Z,12.40
2017-08-30T20:41:58.959Z,11.00
2017-08-30T20:44:26.570Z,10.00
2017-08-30T20:46:54.115Z,9.97
2017-08-30T20:49:21.839Z,9.13
2017-08-30T20:51:49.478Z,9.03
2017-08-30T20:54:17.040Z,9.13
2017-08-30T20:56:44.637Z,9.10
2017-08-30T20:59:12.204Z,9.20
2017-08-30T21:01:40.187Z,9.70
2017-08-30T21:04:07.970Z,9.83
2017-08-30T21:06:35.535Z,10.47
2017-08-30T21:09:03.334Z,10.07
2017-08-30T21:11:30.948Z,9.23
2017-08-30T21:13:58.504Z,10.47
2017-08-30T21:16:26.061Z,10.53
2017-08-30T21:18:53.655Z,9.27
2017-08-30T21:21:21.240Z,11.17
2017-08-30T21:23:48.795Z,9.67
2017-08-30T21:26:16.430Z,10.20
2017-08-30T21:28:45.261Z,8.97
2017-08-30T21:31:14.033Z,9.53
2017-08-30T21:33:41.967Z,9.60
2017-08-30T21:36:09.623Z,9.83
2017-08-30T21:38:37.185Z,9.90
2017-08-30T21:41:04.773Z,10.70
2017-08-30T21:43:32.373Z,9.90
2017-08-30T21:45:59.967Z,10.80
2017-08-30T21:48:27.529Z,10.20
2017-08-30T21:50:55.487Z,9.90
2017-08-30T21:53:23.039Z,9.80
2017-08-30T21:55:50.653Z,10.50
2017-08-30T21:58:18.209Z,10.10
2017-08-30T22:00:45.802Z,9.90
2017-08-30T22:03:13.357Z,9.63
2017-08-30T22:05:41.010Z,10.17
2017-08-30T22:08:08.571Z,9.80
2017-08-30T22:10:38.894Z,9.83
2017-08-30T22:13:06.450Z,9.33
2017-08-30T22:15:34.013Z,9.80
2017-08-30T22:18:01.674Z,9.63
2017-08-30T22:20:29.234Z,9.97
2017-08-30T22:22:56.836Z,9.97
2017-08-30T22:25:24.402Z,8.70
2017-08-30T22:27:51.998Z,8.37
2017-08-30T22:30:19.558Z,8.40
2017-08-30T22:32:47.285Z,8.03
2017-08-30T22:35:15.263Z,9.40
2017-08-30T22:37:42.953Z,9.57
2017-08-30T22:40:10.485Z,7.90
2017-08-30T22:42:38.033Z,8.80
2017-08-30T22:45:08.350Z,7.43
2017-08-30T22:47:35.892Z,7.87
2017-08-30T22:50:03.436Z,8.10
2017-08-30T22:52:31.681Z,8.87
2017-08-30T22:54:59.226Z,8.30
2017-08-30T22:57:26.761Z,8.87
2017-08-30T22:59:54.348Z,9.20
2017-08-30T23:02:22.357Z,9.20
2017-08-30T23:04:49.892Z,9.30
2017-08-30T23:07:17.449Z,9.43
2017-08-30T23:09:45.350Z,9.00
2017-08-30T23:12:12.949Z,9.63
2017-08-30T23:14:40.526Z,9.13
2017-08-30T23:17:08.069Z,8.97
2017-08-30T23:19:35.622Z,9.00
2017-08-30T23:22:03.202Z,9.57
2017-08-30T23:24:31.511Z,10.00
2017-08-30T23:26:59.174Z,9.70
2017-08-30T23:29:26.730Z,10.43
2017-08-30T23:31:55.134Z,8.97
2017-08-30T23:34:22.682Z,10.37
2017-08-30T23:36:50.224Z,9.80
2017-08-30T23:39:17.814Z,9.50
2017-08-30T23:41:45.361Z,9.97
2017-08-30T23:44:13.532Z,9.80
2017-08-30T23:46:41.083Z,10.80
2017-08-30T23:49:08.627Z,10.30
2017-08-30T23:51:36.228Z,10.53
2017-08-30T23:54:04.303Z,10.33
2017-08-30T23:56:31.857Z,10.30
2017-08-30T23:58:59.406Z,11.40
